createdAt,value
2022-12-11T00:01:51.144Z,1.42
2022-12-11T00:04:24.367Z,1.65
2022-12-11T00:09:30.526Z,1.40
2022-12-11T00:12:03.165Z,1.35
2022-12-11T00:14:36.101Z,1.38
2022-12-11T00:17:10.385Z,1.33
2022-12-11T00:19:45.729Z,1.38
2022-12-11T00:22:18.375Z,1.30
2022-12-11T00:24:51.794Z,1.50
2022-12-11T00:27:24.567Z,1.23
2022-12-11T00:29:57.352Z,2.17
2022-12-11T00:32:37.356Z,1.45
2022-12-11T00:35:11.433Z,1.50
2022-12-11T00:37:44.288Z,1.70
2022-12-11T00:40:16.963Z,1.33
2022-12-11T00:42:49.629Z,1.38
2022-12-11T00:45:22.305Z,1.55
2022-12-11T00:47:55.020Z,1.30
2022-12-11T00:50:27.895Z,1.85
2022-12-11T00:53:00.611Z,1.85
2022-12-11T00:58:10.401Z,1.20
2022-12-11T01:03:17.441Z,1.60
2022-12-11T01:05:55.209Z,1.70
2022-12-11T01:08:27.815Z,1.20
2022-12-11T01:11:08.670Z,1.83
2022-12-11T01:13:42.669Z,1.65
2022-12-11T01:16:16.318Z,1.70
2022-12-11T01:18:48.937Z,1.55
2022-12-11T01:21:21.546Z,1.25
2022-12-11T01:23:54.213Z,1.48
2022-12-11T01:26:26.829Z,1.40
2022-12-11T01:28:59.601Z,1.52
2022-12-11T01:31:32.289Z,1.55
2022-12-11T01:34:04.912Z,1.48
2022-12-11T01:36:37.608Z,1.80
2022-12-11T01:39:10.190Z,1.55
2022-12-11T01:41:42.811Z,1.45
2022-12-11T01:44:18.109Z,1.98
2022-12-11T01:46:50.979Z,1.55
2022-12-11T01:49:26.558Z,1.23
2022-12-11T01:52:05.677Z,1.73
2022-12-11T01:54:38.694Z,1.52
2022-12-11T01:57:13.821Z,2.30
2022-12-11T01:59:47.538Z,2.72
2022-12-11T02:02:30.721Z,1.83
2022-12-11T02:05:04.784Z,1.65
2022-12-11T02:07:46.817Z,0.95
2022-12-11T02:10:19.932Z,1.40
2022-12-11T02:13:13.331Z,1.00
2022-12-11T02:15:57.598Z,1.30
2022-12-11T02:18:49.676Z,1.40
2022-12-11T02:21:34.680Z,1.30
2022-12-11T02:24:26.768Z,1.45
2022-12-11T02:27:12.224Z,0.98
2022-12-11T02:30:02.874Z,1.10
2022-12-11T02:32:53.546Z,1.30
2022-12-11T02:35:34.893Z,1.63
2022-12-11T02:38:22.338Z,2.20
2022-12-11T02:40:57.885Z,1.25
2022-12-11T02:43:32.971Z,1.35
2022-12-11T02:46:07.980Z,1.00
2022-12-11T02:48:42.485Z,1.25
2022-12-11T02:51:18.972Z,0.95
2022-12-11T02:53:54.754Z,1.23
2022-12-11T02:56:36.897Z,1.08
2022-12-11T02:59:19.463Z,1.08
2022-12-11T03:01:52.067Z,1.20
2022-12-11T03:04:25.251Z,0.93
2022-12-11T03:07:03.299Z,1.02
2022-12-11T03:09:35.802Z,1.00
2022-12-11T03:12:14.860Z,1.38
2022-12-11T03:14:49.212Z,1.20
2022-12-11T03:17:48.232Z,1.15
2022-12-11T03:20:40.826Z,1.30
2022-12-11T03:23:40.513Z,1.10
2022-12-11T03:26:15.391Z,0.90
2022-12-11T03:29:04.924Z,1.30
2022-12-11T03:31:51.339Z,0.93
2022-12-11T03:34:31.644Z,1.05
2022-12-11T03:37:06.834Z,1.20
2022-12-11T03:39:43.932Z,1.00
2022-12-11T03:42:18.232Z,2.50
2022-12-11T03:44:53.294Z,1.42
2022-12-11T03:47:29.107Z,1.35
2022-12-11T03:50:05.081Z,0.90
2022-12-11T03:52:45.553Z,1.25
2022-12-11T03:55:21.567Z,1.30
2022-12-11T03:57:54.189Z,1.42
2022-12-11T04:00:26.902Z,1.48
2022-12-11T04:03:16.219Z,1.10
2022-12-11T04:05:53.290Z,1.40
2022-12-11T04:08:26.268Z,0.90
2022-12-11T04:11:17.620Z,1.00
2022-12-11T04:14:10.180Z,1.33
2022-12-11T04:16:42.846Z,1.20
2022-12-11T04:19:33.717Z,1.50
2022-12-11T04:22:25.053Z,1.50
2022-12-11T04:24:57.765Z,1.42
2022-12-11T04:27:49.211Z,0.95
2022-12-11T04:30:26.910Z,1.27
2022-12-11T04:33:09.064Z,1.33
2022-12-11T04:35:49.612Z,1.50
2022-12-11T04:38:24.216Z,1.58
2022-12-11T04:40:59.832Z,1.40
2022-12-11T04:43:33.344Z,1.30
2022-12-11T04:46:09.109Z,1.40
2022-12-11T04:48:42.134Z,1.17
2022-12-11T04:51:15.931Z,1.38
2022-12-11T04:53:48.519Z,1.25
2022-12-11T04:56:21.726Z,1.40
2022-12-11T05:01:26.845Z,1.10
2022-12-11T05:04:02.558Z,1.70
2022-12-11T05:06:35.163Z,1.20
2022-12-11T05:09:11.061Z,1.55
2022-12-11T05:11:43.883Z,1.10
2022-12-11T05:14:16.479Z,1.33
2022-12-11T05:16:49.325Z,1.38
2022-12-11T05:19:21.926Z,1.30
2022-12-11T05:21:54.754Z,1.50
2022-12-11T05:24:27.323Z,1.20
2022-12-11T05:26:59.996Z,1.10
2022-12-11T05:29:32.658Z,1.10
2022-12-11T05:32:05.595Z,1.20
2022-12-11T05:34:38.281Z,1.77
2022-12-11T05:37:10.949Z,1.60
2022-12-11T05:39:43.555Z,1.60
2022-12-11T05:42:16.209Z,1.30
2022-12-11T05:44:50.626Z,2.08
2022-12-11T05:47:23.351Z,1.50
2022-12-11T05:49:55.919Z,2.10
2022-12-11T05:52:28.509Z,1.67
2022-12-11T05:55:01.213Z,1.40
2022-12-11T05:57:33.856Z,1.67
2022-12-11T06:00:07.107Z,2.00
2022-12-11T06:05:12.362Z,1.45
2022-12-11T06:07:45.211Z,1.80
2022-12-11T06:10:17.804Z,2.13
2022-12-11T06:12:50.321Z,1.65
2022-12-11T06:15:22.838Z,1.95
2022-12-11T06:17:55.524Z,1.60
2022-12-11T06:20:31.019Z,1.83
2022-12-11T06:23:03.917Z,1.50
2022-12-11T06:25:39.817Z,1.70
2022-12-11T06:28:12.500Z,1.80
2022-12-11T06:30:45.396Z,1.33
2022-12-11T06:33:18.064Z,1.83
2022-12-11T06:35:50.802Z,1.67
2022-12-11T06:38:23.666Z,1.77
2022-12-11T06:40:57.800Z,1.65
2022-12-11T06:43:30.361Z,2.08
2022-12-11T06:46:07.117Z,2.67
2022-12-11T06:48:40.476Z,1.50
2022-12-11T06:53:51.468Z,1.95
2022-12-11T06:56:25.250Z,1.92
2022-12-11T06:59:00.574Z,2.25
2022-12-11T07:01:35.636Z,3.22
2022-12-11T07:04:10.233Z,2.80
2022-12-11T07:06:43.018Z,2.78
2022-12-11T07:09:15.771Z,3.17
2022-12-11T07:11:50.616Z,1.92
2022-12-11T07:14:26.319Z,4.03
2022-12-11T07:16:59.394Z,2.63
2022-12-11T07:19:32.051Z,3.00
2022-12-11T07:22:04.767Z,2.88
2022-12-11T07:24:37.497Z,2.85
2022-12-11T07:27:10.119Z,2.45
2022-12-11T07:29:42.764Z,2.58
2022-12-11T07:32:15.557Z,2.47
2022-12-11T07:34:51.888Z,2.40
2022-12-11T07:37:25.390Z,2.67
2022-12-11T07:39:57.951Z,2.42
2022-12-11T07:42:30.569Z,2.72
2022-12-11T07:45:03.237Z,3.00
2022-12-11T07:47:35.873Z,2.22
2022-12-11T07:50:08.738Z,2.60
2022-12-11T07:52:41.253Z,3.15
2022-12-11T07:55:14.093Z,2.50
2022-12-11T07:57:46.732Z,2.25
2022-12-11T08:00:19.642Z,2.25
2022-12-11T08:02:52.365Z,1.83
2022-12-11T08:05:25.006Z,2.65
2022-12-11T08:07:57.803Z,2.20
2022-12-11T08:10:31.936Z,1.83
2022-12-11T08:13:04.489Z,2.15
2022-12-11T08:15:37.708Z,2.08
2022-12-11T08:20:42.798Z,2.38
2022-12-11T08:23:17.135Z,2.10
2022-12-11T08:25:49.724Z,2.28
2022-12-11T08:28:22.725Z,2.22
2022-12-11T08:30:55.412Z,2.97
2022-12-11T08:33:28.367Z,3.47
2022-12-11T08:36:10.386Z,5.85
2022-12-11T08:38:43.542Z,3.20
2022-12-11T08:41:25.384Z,3.45
2022-12-11T08:44:00.535Z,2.78
2022-12-11T08:46:33.934Z,2.80
2022-12-11T08:49:06.515Z,3.38
2022-12-11T08:51:39.301Z,2.63
2022-12-11T08:54:12.176Z,2.88
2022-12-11T08:56:44.845Z,2.30
2022-12-11T08:59:18.647Z,3.03
2022-12-11T09:01:51.539Z,2.40
2022-12-11T09:04:24.386Z,2.10
2022-12-11T09:06:57.162Z,2.13
2022-12-11T09:09:29.692Z,2.33
2022-12-11T09:12:02.425Z,2.25
2022-12-11T09:14:35.769Z,2.53
2022-12-11T09:17:09.163Z,2.03
2022-12-11T09:19:41.727Z,1.67
2022-12-11T09:22:14.371Z,2.28
2022-12-11T09:24:47.308Z,1.90
2022-12-11T09:27:21.573Z,1.65
2022-12-11T09:29:54.130Z,2.08
2022-12-11T09:32:26.739Z,2.20
2022-12-11T09:34:59.291Z,2.80
2022-12-11T09:37:33.330Z,2.63
2022-12-11T09:40:07.951Z,2.10
2022-12-11T09:42:50.069Z,1.80
2022-12-11T09:45:22.875Z,2.20
2022-12-11T09:47:56.868Z,1.98
2022-12-11T09:50:34.474Z,2.70
2022-12-11T09:53:21.037Z,2.42
2022-12-11T09:55:59.490Z,2.13
2022-12-11T09:58:49.354Z,2.08
2022-12-11T10:01:47.053Z,2.22
2022-12-11T10:04:33.888Z,2.13
2022-12-11T10:07:15.814Z,2.00
2022-12-11T10:09:58.870Z,2.30
2022-12-11T10:12:41.536Z,1.88
2022-12-11T10:15:23.164Z,1.80
2022-12-11T10:18:04.707Z,1.85
2022-12-11T10:20:40.636Z,2.67
2022-12-11T10:23:35.763Z,2.20
2022-12-11T10:26:18.655Z,1.88
2022-12-11T10:28:51.713Z,2.00
2022-12-11T10:31:46.060Z,2.10
2022-12-11T10:34:30.302Z,1.80
2022-12-11T10:37:03.841Z,1.95
2022-12-11T10:39:36.887Z,2.20
2022-12-11T10:45:02.206Z,2.50
2022-12-11T10:47:34.852Z,2.25
2022-12-11T10:50:07.552Z,2.45
2022-12-11T10:52:45.717Z,1.83
2022-12-11T10:55:25.410Z,2.10
2022-12-11T10:58:04.374Z,1.50
2022-12-11T11:00:42.239Z,1.90
2022-12-11T11:03:26.629Z,2.05
2022-12-11T11:06:05.260Z,1.73
2022-12-11T11:08:59.097Z,2.00
2022-12-11T11:11:38.298Z,1.90
2022-12-11T11:14:18.454Z,2.42
2022-12-11T11:16:53.214Z,1.33
2022-12-11T11:19:32.382Z,1.52
2022-12-11T11:22:14.529Z,1.30
2022-12-11T11:24:55.599Z,1.73
2022-12-11T11:27:34.750Z,1.63
2022-12-11T11:30:18.411Z,1.40
2022-12-11T11:33:25.802Z,1.10
2022-12-11T11:36:02.783Z,1.38
2022-12-11T11:38:43.645Z,1.40
2022-12-11T11:41:29.118Z,1.30
2022-12-11T11:44:05.813Z,1.70
2022-12-11T11:46:45.152Z,1.30
2022-12-11T11:49:45.316Z,1.70
2022-12-11T11:52:36.748Z,1.13
2022-12-11T11:55:21.716Z,1.27
2022-12-11T11:58:03.136Z,1.20
2022-12-11T12:00:35.845Z,1.13
2022-12-11T12:03:14.379Z,1.60
2022-12-11T12:05:53.004Z,1.05
2022-12-11T12:08:46.793Z,1.58
2022-12-11T12:11:41.033Z,1.10
2022-12-11T12:14:50.735Z,1.27
2022-12-11T12:17:17.201Z,1.52
2022-12-11T12:20:02.296Z,1.30
2022-12-11T12:22:34.839Z,1.38
2022-12-11T12:25:16.367Z,1.55
2022-12-11T12:28:07.130Z,1.17
2022-12-11T12:30:51.247Z,0.80
2022-12-11T12:33:41.435Z,1.10
2022-12-11T12:36:49.740Z,1.17
2022-12-11T12:39:41.253Z,1.17
2022-12-11T12:42:34.711Z,1.40
2022-12-11T12:45:16.200Z,1.67
2022-12-11T12:47:53.159Z,1.40
2022-12-11T12:50:36.914Z,1.50
2022-12-11T12:55:48.704Z,1.83
2022-12-11T12:58:30.229Z,1.45
2022-12-11T13:01:22.248Z,1.80
2022-12-11T13:04:05.896Z,1.80
2022-12-11T13:06:44.500Z,1.50
2022-12-11T13:09:22.627Z,1.50
2022-12-11T13:11:58.275Z,1.30
2022-12-11T13:14:33.970Z,1.60
2022-12-11T13:17:21.400Z,1.60
2022-12-11T13:20:18.140Z,1.00
2022-12-11T13:23:17.111Z,1.45
2022-12-11T13:25:54.050Z,1.30
2022-12-11T13:28:28.442Z,1.13
2022-12-11T13:31:23.126Z,1.35
2022-12-11T13:33:58.482Z,1.35
2022-12-11T13:36:34.007Z,1.50
2022-12-11T13:39:17.497Z,1.45
2022-12-11T13:41:55.279Z,2.00
2022-12-11T13:44:38.478Z,1.67
2022-12-11T13:47:17.718Z,1.10
2022-12-11T13:49:55.140Z,1.05
2022-12-11T13:52:28.835Z,1.23
2022-12-11T13:55:01.499Z,1.20
2022-12-11T13:57:34.100Z,1.00
2022-12-11T14:00:21.685Z,1.20
2022-12-11T14:02:56.917Z,1.00
2022-12-11T14:05:29.950Z,1.08
2022-12-11T14:08:11.709Z,1.30
2022-12-11T14:10:44.408Z,1.27
2022-12-11T14:13:27.808Z,1.23
2022-12-11T14:18:35.729Z,0.80
2022-12-11T14:21:08.467Z,1.40
2022-12-11T14:23:41.022Z,1.23
2022-12-11T14:26:27.828Z,1.30
2022-12-11T14:29:00.743Z,1.10
2022-12-11T14:31:44.283Z,1.10
2022-12-11T14:34:21.635Z,1.50
2022-12-11T14:36:55.493Z,1.10
2022-12-11T14:39:34.176Z,1.63
2022-12-11T14:42:06.918Z,0.98
2022-12-11T14:45:06.899Z,1.08
2022-12-11T14:47:44.336Z,1.20
2022-12-11T14:50:39.026Z,1.48
2022-12-11T14:53:17.834Z,1.63
2022-12-11T14:55:51.081Z,1.27
2022-12-11T14:58:26.938Z,1.52
2022-12-11T15:01:08.705Z,1.40
2022-12-11T15:03:43.547Z,1.40
2022-12-11T15:06:26.333Z,1.40
2022-12-11T15:09:09.813Z,1.50
2022-12-11T15:14:16.787Z,1.40
2022-12-11T15:16:50.991Z,1.75
2022-12-11T15:19:33.431Z,1.65
2022-12-11T15:22:09.024Z,1.20
2022-12-11T15:24:43.909Z,1.60
2022-12-11T15:27:37.934Z,1.27
2022-12-11T15:30:29.355Z,1.75
2022-12-11T15:33:11.114Z,1.50
2022-12-11T15:36:04.046Z,1.00
2022-12-11T15:38:40.935Z,1.42
2022-12-11T15:41:24.892Z,1.48
2022-12-11T15:43:59.384Z,1.00
2022-12-11T15:46:37.756Z,1.38
2022-12-11T15:49:13.263Z,1.10
2022-12-11T15:51:46.275Z,1.33
2022-12-11T15:54:18.882Z,1.35
2022-12-11T15:56:51.476Z,1.38
2022-12-11T15:59:24.075Z,1.10
2022-12-11T16:01:56.653Z,1.15
2022-12-11T16:04:29.310Z,1.48
2022-12-11T16:07:01.931Z,1.85
2022-12-11T16:09:35.291Z,1.35
2022-12-11T16:12:08.053Z,1.13
2022-12-11T16:14:46.908Z,1.60
2022-12-11T16:17:19.889Z,1.80
2022-12-11T16:19:54.560Z,2.03
2022-12-11T16:22:27.216Z,1.60
2022-12-11T16:24:59.796Z,1.67
2022-12-11T16:27:32.492Z,3.17
2022-12-11T16:30:05.467Z,3.33
2022-12-11T16:32:38.155Z,3.35
2022-12-11T16:35:11.366Z,3.15
2022-12-11T16:37:44.800Z,2.25
2022-12-11T16:40:18.562Z,2.17
2022-12-11T16:42:52.165Z,2.15
2022-12-11T16:45:26.597Z,2.85
2022-12-11T16:47:59.191Z,2.22
2022-12-11T16:50:32.576Z,2.55
2022-12-11T16:53:05.241Z,1.83
2022-12-11T16:55:40.196Z,1.98
2022-12-11T16:58:18.383Z,2.15
2022-12-11T17:00:51.031Z,2.40
2022-12-11T17:03:23.703Z,2.60
2022-12-11T17:05:56.718Z,2.95
2022-12-11T17:08:30.084Z,2.05
2022-12-11T17:11:10.209Z,2.40
2022-12-11T17:13:43.532Z,1.90
2022-12-11T17:16:17.279Z,1.95
2022-12-11T17:18:49.953Z,1.45
2022-12-11T17:21:23.415Z,1.90
2022-12-11T17:23:56.559Z,2.00
2022-12-11T17:26:29.268Z,1.75
2022-12-11T17:29:02.044Z,2.17
2022-12-11T17:31:34.730Z,1.90
2022-12-11T17:34:07.914Z,1.90
2022-12-11T17:36:40.564Z,2.30
2022-12-11T17:39:13.205Z,1.70
2022-12-11T17:41:45.924Z,1.50
2022-12-11T17:44:18.528Z,2.15
2022-12-11T17:46:51.256Z,2.13
2022-12-11T17:49:24.158Z,2.10
2022-12-11T17:51:56.818Z,2.45
2022-12-11T17:54:29.512Z,2.40
2022-12-11T17:57:02.522Z,1.90
2022-12-11T17:59:35.205Z,1.85
2022-12-11T18:02:07.927Z,2.17
2022-12-11T18:04:40.699Z,2.60
2022-12-11T18:07:13.318Z,2.25
2022-12-11T18:09:45.885Z,2.60
2022-12-11T18:12:18.564Z,2.70
2022-12-11T18:14:51.283Z,3.53
2022-12-11T18:17:24.032Z,3.25
2022-12-11T18:20:06.451Z,3.15
2022-12-11T18:22:51.709Z,2.63
2022-12-11T18:25:24.538Z,2.75
2022-12-11T18:28:06.195Z,2.03
2022-12-11T18:30:52.679Z,2.20
2022-12-11T18:33:43.648Z,1.90
2022-12-11T18:36:28.931Z,2.60
2022-12-11T18:39:06.461Z,2.08
2022-12-11T18:42:16.553Z,2.08
2022-12-11T18:44:57.545Z,2.42
2022-12-11T18:47:38.381Z,2.13
2022-12-11T18:50:11.735Z,2.30
2022-12-11T18:52:44.320Z,2.13
2022-12-11T18:55:16.879Z,2.45
2022-12-11T18:57:50.124Z,2.80
2022-12-11T19:00:23.269Z,2.70
2022-12-11T19:02:55.987Z,2.33
2022-12-11T19:05:29.631Z,2.20
2022-12-11T19:08:02.969Z,2.50
2022-12-11T19:10:45.095Z,2.70
2022-12-11T19:13:17.763Z,1.92
2022-12-11T19:15:50.477Z,2.53
2022-12-11T19:18:23.264Z,2.80
2022-12-11T19:21:04.901Z,2.22
2022-12-11T19:23:40.182Z,2.85
2022-12-11T19:26:15.870Z,2.35
2022-12-11T19:28:50.070Z,2.08
2022-12-11T19:31:24.382Z,2.30
2022-12-11T19:33:58.072Z,2.38
2022-12-11T19:36:32.044Z,3.28
2022-12-11T19:39:09.814Z,3.20
2022-12-11T19:41:45.639Z,2.65
2022-12-11T19:44:18.279Z,2.97
2022-12-11T19:46:50.865Z,2.88
2022-12-11T19:49:24.030Z,2.85
2022-12-11T19:51:56.695Z,2.58
2022-12-11T19:54:29.506Z,2.92
2022-12-11T19:57:02.372Z,2.38
2022-12-11T19:59:35.077Z,2.80
2022-12-11T20:02:07.858Z,2.50
2022-12-11T20:04:40.709Z,2.90
2022-12-11T20:07:13.998Z,2.30
2022-12-11T20:12:18.985Z,2.60
2022-12-11T20:14:51.519Z,2.17
2022-12-11T20:17:24.509Z,2.63
2022-12-11T20:19:57.279Z,2.38
2022-12-11T20:22:29.964Z,2.40
2022-12-11T20:25:02.544Z,2.92
2022-12-11T20:27:35.201Z,2.53
2022-12-11T20:30:08.453Z,2.50
2022-12-11T20:35:14.085Z,2.38
2022-12-11T20:37:46.920Z,2.55
2022-12-11T20:40:19.872Z,2.78
2022-12-11T20:42:52.542Z,2.78
2022-12-11T20:45:25.743Z,2.30
2022-12-11T20:50:30.924Z,2.63
2022-12-11T20:53:03.874Z,2.25
2022-12-11T20:55:41.043Z,3.42
2022-12-11T20:58:13.807Z,2.90
2022-12-11T21:00:46.900Z,2.78
2022-12-11T21:03:19.513Z,2.00
2022-12-11T21:05:52.122Z,2.42
2022-12-11T21:08:24.862Z,2.10
2022-12-11T21:10:57.480Z,2.50
2022-12-11T21:13:30.148Z,2.13
2022-12-11T21:16:07.563Z,1.75
2022-12-11T21:18:40.442Z,1.90
2022-12-11T21:21:13.577Z,1.77
2022-12-11T21:23:46.201Z,1.88
2022-12-11T21:26:19.410Z,1.75
2022-12-11T21:31:25.351Z,1.67
2022-12-11T21:33:58.520Z,1.90
2022-12-11T21:36:31.522Z,1.60
2022-12-11T21:39:05.184Z,2.00
2022-12-11T21:41:37.869Z,1.75
2022-12-11T21:47:12.375Z,1.80
2022-12-11T21:49:48.058Z,1.73
2022-12-11T21:52:20.649Z,1.63
2022-12-11T21:54:53.246Z,1.73
2022-12-11T21:57:26.865Z,1.42
2022-12-11T22:00:00.157Z,1.60
2022-12-11T22:02:37.476Z,1.60
2022-12-11T22:05:13.274Z,2.42
2022-12-11T22:07:46.091Z,1.35
2022-12-11T22:10:18.810Z,1.50
2022-12-11T22:12:51.494Z,1.40
2022-12-11T22:15:24.333Z,1.60
2022-12-11T22:17:58.040Z,2.03
2022-12-11T22:20:30.617Z,1.88
2022-12-11T22:23:03.228Z,1.67
2022-12-11T22:25:35.953Z,1.35
2022-12-11T22:28:08.593Z,1.83
2022-12-11T22:30:42.131Z,1.75
2022-12-11T22:33:15.052Z,1.75
2022-12-11T22:35:47.801Z,1.55
2022-12-11T22:38:20.421Z,1.33
2022-12-11T22:40:54.804Z,1.20
2022-12-11T22:43:27.487Z,1.50
2022-12-11T22:46:00.191Z,1.63
2022-12-11T22:48:35.902Z,1.50
2022-12-11T22:51:08.761Z,1.52
2022-12-11T22:53:41.464Z,1.50
2022-12-11T22:56:14.632Z,1.60
2022-12-11T23:01:25.156Z,1.40
2022-12-11T23:03:57.849Z,1.63
2022-12-11T23:06:30.534Z,1.60
2022-12-11T23:09:03.700Z,1.40
2022-12-11T23:11:38.042Z,1.50
2022-12-11T23:14:17.205Z,1.50
2022-12-11T23:16:50.007Z,1.58
2022-12-11T23:19:25.636Z,2.53
2022-12-11T23:21:58.439Z,1.88
2022-12-11T23:24:31.118Z,1.40
2022-12-11T23:27:03.800Z,2.00
2022-12-11T23:29:36.659Z,1.95
2022-12-11T23:32:09.360Z,1.95
2022-12-11T23:34:41.913Z,1.70
2022-12-11T23:37:14.517Z,1.42
2022-12-11T23:39:47.171Z,1.58
2022-12-11T23:42:19.775Z,1.75
2022-12-11T23:44:52.277Z,1.60
2022-12-11T23:47:24.928Z,1.42
2022-12-11T23:49:57.528Z,1.67
2022-12-11T23:52:30.127Z,1.27
2022-12-11T23:55:02.926Z,1.80
2022-12-11T23:57:35.984Z,1.50
